createdAt,value
2018-12-30T00:05:14.329Z,3.90
2018-12-30T00:07:56.425Z,3.73
2018-12-30T00:10:36.297Z,4.60
2018-12-30T00:13:22.787Z,7.20
2018-12-30T00:16:02.539Z,7.17
2018-12-30T00:18:42.557Z,5.23
2018-12-30T00:21:22.827Z,6.20
2018-12-30T00:24:03.808Z,5.17
2018-12-30T00:26:48.155Z,5.20
2018-12-30T00:29:28.643Z,4.80
2018-12-30T00:32:08.779Z,4.40
2018-12-30T00:34:48.679Z,3.40
2018-12-30T00:37:29.204Z,4.00
2018-12-30T00:40:09.847Z,3.83
2018-12-30T00:42:49.828Z,3.57
2018-12-30T00:45:29.814Z,3.40
2018-12-30T00:48:09.872Z,3.00
2018-12-30T00:50:51.047Z,3.43
2018-12-30T00:53:31.656Z,3.23
2018-12-30T00:56:12.323Z,4.03
2018-12-30T00:58:52.293Z,4.27
2018-12-30T01:01:32.040Z,3.70
2018-12-30T01:04:11.754Z,4.47
2018-12-30T01:06:52.438Z,4.13
2018-12-30T01:09:32.453Z,4.23
2018-12-30T01:12:12.632Z,3.93
2018-12-30T01:14:52.441Z,3.80
2018-12-30T01:17:32.295Z,4.60
2018-12-30T01:20:12.432Z,4.00
2018-12-30T01:22:53.779Z,4.07
2018-12-30T01:25:36.436Z,4.43
2018-12-30T01:28:16.625Z,4.97
2018-12-30T01:30:56.549Z,3.87
2018-12-30T01:33:36.690Z,4.13
2018-12-30T01:36:16.680Z,3.80
2018-12-30T01:38:57.575Z,4.10
2018-12-30T01:41:37.756Z,3.67
2018-12-30T01:44:17.851Z,6.07
2018-12-30T01:46:58.003Z,4.73
2018-12-30T01:49:38.718Z,4.50
2018-12-30T01:52:06.426Z,4.40
2018-12-30T01:54:53.830Z,4.63
2018-12-30T01:57:34.010Z,4.20
2018-12-30T02:00:13.858Z,4.80
2018-12-30T02:02:57.492Z,4.67
2018-12-30T02:05:39.984Z,5.07
2018-12-30T02:08:19.924Z,4.20
2018-12-30T02:10:59.790Z,5.37
2018-12-30T02:13:40.717Z,4.43
2018-12-30T02:16:20.495Z,4.47
2018-12-30T02:19:00.259Z,4.20
2018-12-30T02:21:41.145Z,3.80
2018-12-30T02:24:21.263Z,3.83
2018-12-30T02:27:01.461Z,3.97
2018-12-30T02:29:42.289Z,4.33
2018-12-30T02:32:22.989Z,4.00
2018-12-30T02:35:02.994Z,3.80
2018-12-30T02:37:42.929Z,4.10
2018-12-30T02:40:23.136Z,3.93
2018-12-30T02:43:03.241Z,3.80
2018-12-30T02:45:44.494Z,3.70
2018-12-30T02:48:25.534Z,3.50
2018-12-30T02:51:05.737Z,4.10
2018-12-30T02:53:45.822Z,4.37
2018-12-30T02:56:25.743Z,4.10
2018-12-30T02:59:05.764Z,3.83
2018-12-30T03:01:49.369Z,3.63
2018-12-30T03:04:18.720Z,4.27
2018-12-30T03:07:05.798Z,3.70
2018-12-30T03:09:46.738Z,3.73
2018-12-30T03:12:26.989Z,3.67
2018-12-30T03:15:07.226Z,3.93
2018-12-30T03:17:47.490Z,3.97
2018-12-30T03:20:27.261Z,3.37
2018-12-30T03:23:09.300Z,4.90
2018-12-30T03:25:49.912Z,3.40
2018-12-30T03:28:29.689Z,3.80
2018-12-30T03:31:09.755Z,4.97
2018-12-30T03:33:49.922Z,4.87
2018-12-30T03:36:29.918Z,5.20
2018-12-30T03:39:10.298Z,4.87
2018-12-30T03:41:50.114Z,5.63
2018-12-30T03:44:30.124Z,4.90
2018-12-30T03:47:09.909Z,4.40
2018-12-30T03:49:50.009Z,4.07
2018-12-30T03:52:30.019Z,3.80
2018-12-30T03:55:10.272Z,4.87
2018-12-30T03:57:50.248Z,4.73
2018-12-30T04:00:30.887Z,5.67
2018-12-30T04:03:10.632Z,5.13
2018-12-30T04:05:50.474Z,4.50
2018-12-30T04:08:30.656Z,4.23
2018-12-30T04:11:10.484Z,5.60
2018-12-30T04:13:50.461Z,4.73
2018-12-30T04:16:30.468Z,4.90
2018-12-30T04:19:10.596Z,5.13
2018-12-30T04:21:50.816Z,5.10
2018-12-30T04:24:31.645Z,5.13
2018-12-30T04:27:11.802Z,4.03
2018-12-30T04:29:51.850Z,5.63
2018-12-30T04:32:31.895Z,5.20
2018-12-30T04:35:12.108Z,4.63
2018-12-30T04:37:52.374Z,5.10
2018-12-30T04:40:33.724Z,5.20
2018-12-30T04:43:13.915Z,4.90
2018-12-30T04:45:53.928Z,4.60
2018-12-30T04:48:34.104Z,4.60
2018-12-30T04:51:14.296Z,4.23
2018-12-30T04:53:54.396Z,3.97
2018-12-30T04:56:34.194Z,4.10
2018-12-30T04:59:14.060Z,3.90
2018-12-30T05:01:53.864Z,4.50
2018-12-30T05:04:33.761Z,3.97
2018-12-30T05:07:13.738Z,4.17
2018-12-30T05:09:53.552Z,4.20
2018-12-30T05:12:33.569Z,4.07
2018-12-30T05:15:14.278Z,3.97
2018-12-30T05:17:54.024Z,3.97
2018-12-30T05:20:34.259Z,4.93
2018-12-30T05:23:14.388Z,4.80
2018-12-30T05:25:54.634Z,5.10
2018-12-30T05:28:34.838Z,5.07
2018-12-30T05:31:14.978Z,4.50
2018-12-30T05:33:56.794Z,5.57
2018-12-30T05:36:37.214Z,4.57
2018-12-30T05:39:17.194Z,4.67
2018-12-30T05:41:57.428Z,4.90
2018-12-30T05:44:37.148Z,4.70
2018-12-30T05:47:18.550Z,4.97
2018-12-30T05:53:11.327Z,4.97
2018-12-30T05:55:51.624Z,5.50
2018-12-30T06:01:17.739Z,5.33
2018-12-30T06:07:11.426Z,6.00
2018-12-30T06:09:51.938Z,5.87
2018-12-30T06:12:32.073Z,6.10
2018-12-30T06:15:12.309Z,6.43
2018-12-30T06:17:52.310Z,5.93
2018-12-30T06:20:32.501Z,6.43
2018-12-30T06:23:14.253Z,6.30
2018-12-30T06:25:54.680Z,6.20
2018-12-30T06:28:35.034Z,6.57
2018-12-30T06:31:15.421Z,6.30
2018-12-30T06:33:55.402Z,6.67
2018-12-30T06:36:35.313Z,6.77
2018-12-30T06:39:15.414Z,7.00
2018-12-30T06:41:55.359Z,6.10
2018-12-30T06:44:35.316Z,6.83
2018-12-30T06:47:15.195Z,6.73
2018-12-30T06:50:02.502Z,7.87
2018-12-30T06:52:57.356Z,7.80
2018-12-30T06:55:31.445Z,7.97
2018-12-30T06:58:11.702Z,7.73
2018-12-30T07:00:51.409Z,7.53
2018-12-30T07:03:31.479Z,7.67
2018-12-30T07:06:12.983Z,8.33
2018-12-30T07:08:53.541Z,7.33
2018-12-30T07:11:33.683Z,7.73
2018-12-30T07:14:13.699Z,8.83
2018-12-30T07:19:56.341Z,8.20
2018-12-30T07:22:36.071Z,8.93
2018-12-30T07:25:16.155Z,8.00
2018-12-30T07:27:55.941Z,9.37
2018-12-30T07:30:35.904Z,9.43
2018-12-30T07:33:15.692Z,8.70
2018-12-30T07:35:55.994Z,9.10
2018-12-30T07:38:35.625Z,8.17
2018-12-30T07:41:15.812Z,8.93
2018-12-30T07:43:56.364Z,9.00
2018-12-30T07:46:36.788Z,8.27
2018-12-30T07:49:21.807Z,8.67
2018-12-30T07:52:01.723Z,8.97
2018-12-30T07:54:41.718Z,10.17
2018-12-30T07:57:21.935Z,9.97
2018-12-30T08:00:05.406Z,9.63
2018-12-30T08:02:45.003Z,9.50
2018-12-30T08:08:11.051Z,8.63
2018-12-30T08:10:51.047Z,8.37
2018-12-30T08:13:31.335Z,8.27
2018-12-30T08:16:11.953Z,9.10
2018-12-30T08:18:39.955Z,9.10
2018-12-30T08:21:27.154Z,9.53
2018-12-30T08:24:14.572Z,9.53
2018-12-30T08:29:57.209Z,9.10
2018-12-30T08:32:44.434Z,9.27
2018-12-30T08:36:09.653Z,8.70
2018-12-30T08:38:40.702Z,9.40
2018-12-30T08:44:34.961Z,9.50
2018-12-30T08:47:16.469Z,10.33
2018-12-30T08:49:58.972Z,10.60
2018-12-30T08:52:45.670Z,10.57
2018-12-30T08:55:23.082Z,10.97
2018-12-30T08:58:03.388Z,11.73
2018-12-30T09:00:43.228Z,10.63
2018-12-30T09:03:24.438Z,11.27
2018-12-30T09:06:04.272Z,11.83
2018-12-30T09:11:40.432Z,12.00
2018-12-30T09:14:20.225Z,12.63
2018-12-30T09:17:00.244Z,11.83
2018-12-30T09:19:40.174Z,12.47
2018-12-30T09:28:21.647Z,11.97
2018-12-30T09:31:01.561Z,11.83
2018-12-30T09:33:41.658Z,12.23
2018-12-30T09:36:21.991Z,12.37
2018-12-30T09:39:03.678Z,11.33
2018-12-30T09:41:44.239Z,11.83
2018-12-30T09:53:06.658Z,12.80
2018-12-30T09:55:47.618Z,12.23
2018-12-30T09:58:27.918Z,12.77
2018-12-30T10:01:13.509Z,12.43
2018-12-30T10:06:45.475Z,12.97
2018-12-30T10:09:33.909Z,12.13
2018-12-30T10:12:14.142Z,12.10
2018-12-30T10:17:40.315Z,11.43
2018-12-30T10:23:03.243Z,12.77
2018-12-30T10:25:43.226Z,12.70
2018-12-30T10:28:23.700Z,11.93
2018-12-30T10:31:04.249Z,13.57
2018-12-30T10:33:44.491Z,12.57
2018-12-30T10:36:28.184Z,12.77
2018-12-30T10:39:11.397Z,12.63
2018-12-30T10:41:51.806Z,11.37
2018-12-30T10:44:34.910Z,12.33
2018-12-30T10:47:15.303Z,12.43
2018-12-30T10:49:56.929Z,13.30
2018-12-30T10:52:37.301Z,14.20
2018-12-30T10:55:17.405Z,13.07
2018-12-30T11:00:47.414Z,13.83
2018-12-30T11:03:27.275Z,13.17
2018-12-30T11:08:56.896Z,12.80
2018-12-30T11:14:37.108Z,12.87
2018-12-30T11:17:17.648Z,12.50
2018-12-30T11:22:47.318Z,13.47
2018-12-30T11:25:27.166Z,13.23
2018-12-30T11:28:08.079Z,13.73
2018-12-30T11:30:49.560Z,14.17
2018-12-30T11:33:29.450Z,13.73
2018-12-30T11:36:09.622Z,14.87
2018-12-30T11:41:36.061Z,15.80
2018-12-30T11:49:49.591Z,15.40
2018-12-30T11:52:35.836Z,14.97
2018-12-30T11:55:20.884Z,18.57
2018-12-30T12:00:48.574Z,19.97
2018-12-30T12:03:28.480Z,20.27
2018-12-30T12:06:09.935Z,21.13
2018-12-30T12:08:37.546Z,21.23
2018-12-30T12:11:22.182Z,23.00
2018-12-30T12:14:02.256Z,22.77
2018-12-30T12:16:42.720Z,21.60
2018-12-30T12:19:29.643Z,23.43
2018-12-30T12:22:13.470Z,22.57
2018-12-30T12:27:45.737Z,24.23
2018-12-30T12:30:31.838Z,23.93
2018-12-30T12:33:16.439Z,24.03
2018-12-30T12:36:03.003Z,23.00
2018-12-30T12:38:43.770Z,22.87
2018-12-30T12:41:27.654Z,23.60
2018-12-30T12:44:11.276Z,23.13
2018-12-30T12:49:42.140Z,22.80
2018-12-30T12:52:21.847Z,22.67
2018-12-30T12:55:01.800Z,23.03
2018-12-30T13:03:10.609Z,23.00
2018-12-30T13:05:50.521Z,21.83
2018-12-30T13:08:31.226Z,22.03
2018-12-30T13:11:13.047Z,21.57
2018-12-30T13:13:53.275Z,22.23
2018-12-30T13:16:33.408Z,20.73
2018-12-30T13:19:13.799Z,21.27
2018-12-30T13:21:54.845Z,23.10
2018-12-30T13:24:39.890Z,21.30
2018-12-30T13:27:16.635Z,21.30
2018-12-30T13:29:56.799Z,21.80
2018-12-30T13:32:24.444Z,23.23
2018-12-30T13:35:11.878Z,24.27
2018-12-30T13:37:51.862Z,22.43
2018-12-30T13:40:32.262Z,23.07
2018-12-30T13:43:12.772Z,23.23
2018-12-30T13:45:54.244Z,24.17
2018-12-30T13:48:34.150Z,23.90
2018-12-30T13:51:14.490Z,24.53
2018-12-30T13:53:55.001Z,23.20
2018-12-30T13:56:35.721Z,24.30
2018-12-30T13:59:16.107Z,25.60
2018-12-30T14:01:57.684Z,24.93
2018-12-30T14:04:25.294Z,25.83
2018-12-30T14:09:59.136Z,25.13
2018-12-30T14:12:39.990Z,25.47
2018-12-30T14:18:09.972Z,25.17
2018-12-30T14:20:49.974Z,27.03
2018-12-30T14:23:30.814Z,32.60
2018-12-30T14:26:11.172Z,28.60
2018-12-30T14:28:38.762Z,25.87
2018-12-30T14:31:26.288Z,25.57
2018-12-30T14:34:13.692Z,26.10
2018-12-30T14:37:01.564Z,25.77
2018-12-30T14:39:49.556Z,26.60
2018-12-30T14:42:36.878Z,25.40
2018-12-30T14:45:23.964Z,25.63
2018-12-30T14:48:11.032Z,24.17
2018-12-30T14:50:58.074Z,23.90
2018-12-30T14:53:45.561Z,24.73
2018-12-30T14:56:32.644Z,25.70
2018-12-30T14:59:19.959Z,24.27
2018-12-30T15:02:07.282Z,24.90
2018-12-30T15:04:54.413Z,24.80
2018-12-30T15:07:41.820Z,24.73
2018-12-30T15:10:28.877Z,24.90
2018-12-30T15:12:56.501Z,24.93
2018-12-30T15:15:43.952Z,25.70
2018-12-30T15:18:31.033Z,24.47
2018-12-30T15:21:18.104Z,26.53
2018-12-30T15:24:05.214Z,26.20
2018-12-30T15:26:52.257Z,25.93
2018-12-30T15:29:39.385Z,27.00
2018-12-30T15:32:26.863Z,25.83
2018-12-30T15:35:13.942Z,26.03
2018-12-30T15:38:01.399Z,26.03
2018-12-30T15:40:48.847Z,25.93
2018-12-30T15:43:35.926Z,25.53
2018-12-30T15:46:37.554Z,24.73
2018-12-30T15:49:34.671Z,25.33
2018-12-30T15:52:21.802Z,24.43
2018-12-30T15:55:09.403Z,24.70
2018-12-30T15:57:56.480Z,25.23
2018-12-30T16:00:43.962Z,25.90
2018-12-30T16:03:31.100Z,25.87
2018-12-30T16:06:18.578Z,25.87
2018-12-30T16:09:07.645Z,26.67
2018-12-30T16:11:56.607Z,27.20
2018-12-30T16:14:43.749Z,26.43
2018-12-30T16:17:30.781Z,28.80
2018-12-30T16:20:18.231Z,28.87
2018-12-30T16:23:05.347Z,28.20
2018-12-30T16:25:52.489Z,29.80
2018-12-30T16:28:39.643Z,30.40
2018-12-30T16:34:22.213Z,29.40
2018-12-30T16:37:09.237Z,30.03
2018-12-30T16:39:56.528Z,31.70
2018-12-30T16:42:46.422Z,32.53
2018-12-30T16:45:33.498Z,31.53
2018-12-30T16:48:20.530Z,32.10
2018-12-30T16:51:07.582Z,31.57
2018-12-30T16:53:55.059Z,30.03
2018-12-30T16:57:03.425Z,31.77
2018-12-30T16:59:51.107Z,30.77
2018-12-30T17:02:38.274Z,32.60
2018-12-30T17:08:33.889Z,33.33
2018-12-30T17:11:20.990Z,34.20
2018-12-30T17:16:47.143Z,30.97
2018-12-30T17:19:27.787Z,32.77
2018-12-30T17:24:54.379Z,31.57
2018-12-30T17:33:03.625Z,32.83
2018-12-30T17:38:31.722Z,32.37
2018-12-30T17:52:21.633Z,32.73
2018-12-30T17:55:03.903Z,32.57
2018-12-30T17:57:47.663Z,32.30
2018-12-30T18:00:28.934Z,33.00
2018-12-30T18:03:09.693Z,32.60
2018-12-30T18:08:42.095Z,31.33
2018-12-30T18:11:23.858Z,31.00
2018-12-30T18:14:04.380Z,31.53
2018-12-30T18:16:50.598Z,31.10
2018-12-30T18:19:36.992Z,39.47
2018-12-30T18:22:16.966Z,34.63
2018-12-30T18:24:44.709Z,31.40
2018-12-30T18:27:31.731Z,31.67
2018-12-30T18:30:12.330Z,31.70
2018-12-30T18:32:54.025Z,31.47
2018-12-30T18:35:35.987Z,31.47
2018-12-30T18:41:08.721Z,31.40
2018-12-30T18:46:41.929Z,30.27
2018-12-30T18:49:26.549Z,29.73
2018-12-30T19:00:28.071Z,30.73
2018-12-30T19:08:47.529Z,30.67
2018-12-30T19:17:39.050Z,30.77
2018-12-30T19:20:09.123Z,30.23
2018-12-30T19:22:53.720Z,29.80
2018-12-30T19:25:38.241Z,28.27
2018-12-30T19:31:10.018Z,28.30
2018-12-30T19:36:45.929Z,27.80
2018-12-30T19:39:32.694Z,27.30
2018-12-30T19:42:39.744Z,25.83
2018-12-30T19:50:58.453Z,25.63
2018-12-30T19:53:44.504Z,25.17
2018-12-30T19:56:30.705Z,34.50
2018-12-30T19:58:58.815Z,26.10
2018-12-30T20:01:53.012Z,25.27
2018-12-30T20:04:40.709Z,23.57
2018-12-30T20:19:11.107Z,26.53
2018-12-30T20:30:19.606Z,24.00
2018-12-30T20:33:04.016Z,25.90
2018-12-30T20:41:24.368Z,23.03
2018-12-30T20:44:11.586Z,21.50
2018-12-30T20:46:56.243Z,21.53
2018-12-30T20:55:15.278Z,23.20
2018-12-30T20:57:59.933Z,23.43
2018-12-30T21:00:43.563Z,22.57
2018-12-30T21:03:28.106Z,23.47
2018-12-30T21:06:09.620Z,21.43
2018-12-30T21:14:26.280Z,22.37
2018-12-30T21:19:53.994Z,21.50
2018-12-30T21:25:14.394Z,22.70
2018-12-30T21:30:43.323Z,21.50
2018-12-30T21:33:23.460Z,22.37
2018-12-30T21:36:05.068Z,23.47
2018-12-30T21:38:44.990Z,22.90
2018-12-30T21:41:25.069Z,22.87
2018-12-30T21:44:05.198Z,22.07
2018-12-30T21:52:37.544Z,20.20
2018-12-30T21:58:06.804Z,22.87
2018-12-30T22:09:18.616Z,22.13
2018-12-30T22:29:01.032Z,23.83
2018-12-30T22:34:35.772Z,26.70
2018-12-30T22:40:16.649Z,26.50
2018-12-30T22:43:02.418Z,27.07
2018-12-30T22:45:46.288Z,25.77
2018-12-30T22:54:14.431Z,26.07
2018-12-30T23:08:15.281Z,27.77
2018-12-30T23:10:55.038Z,27.67
2018-12-30T23:13:35.666Z,29.70
2018-12-30T23:25:01.726Z,28.80
2018-12-30T23:30:32.318Z,30.00
2018-12-30T23:38:51.374Z,29.63
2018-12-30T23:52:38.842Z,31.67
2018-12-30T23:55:18.834Z,29.83
